createdAt,value
2018-08-24T00:01:48.043Z,5.60
2018-08-24T00:04:16.607Z,4.20
2018-08-24T00:06:45.163Z,5.00
2018-08-24T00:09:15.051Z,4.20
2018-08-24T00:11:43.643Z,5.00
2018-08-24T00:14:12.983Z,4.78
2018-08-24T00:16:42.542Z,4.00
2018-08-24T00:19:15.253Z,5.30
2018-08-24T00:21:44.423Z,4.60
2018-08-24T00:24:13.639Z,4.53
2018-08-24T00:26:42.232Z,4.25
2018-08-24T00:29:11.119Z,4.80
2018-08-24T00:31:40.464Z,5.03
2018-08-24T00:34:09.002Z,4.53
2018-08-24T00:36:37.586Z,5.03
2018-08-24T00:39:07.986Z,4.53
2018-08-24T00:41:36.941Z,5.03
2018-08-24T00:44:05.667Z,4.05
2018-08-24T00:46:34.341Z,4.80
2018-08-24T00:49:03.275Z,4.37
2018-08-24T00:51:31.934Z,4.33
2018-08-24T00:54:00.533Z,5.17
2018-08-24T00:56:29.093Z,4.75
2018-08-24T00:58:57.651Z,4.78
2018-08-24T01:01:26.222Z,4.87
2018-08-24T01:03:54.812Z,5.53
2018-08-24T01:06:23.562Z,5.92
2018-08-24T01:08:52.469Z,5.55
2018-08-24T01:11:25.383Z,4.85
2018-08-24T01:13:54.403Z,5.45
2018-08-24T01:16:28.440Z,5.10
2018-08-24T01:18:57.016Z,5.15
2018-08-24T01:21:25.575Z,4.70
2018-08-24T01:23:54.311Z,5.15
2018-08-24T01:26:24.215Z,4.85
2018-08-24T01:28:53.485Z,4.30
2018-08-24T01:31:22.067Z,4.05
2018-08-24T01:33:50.790Z,5.05
2018-08-24T01:36:19.416Z,4.58
2018-08-24T01:38:47.984Z,4.65
2018-08-24T01:41:16.571Z,5.75
2018-08-24T01:43:45.138Z,5.30
2018-08-24T01:46:15.234Z,4.40
2018-08-24T01:48:43.807Z,4.87
2018-08-24T01:51:13.428Z,4.75
2018-08-24T01:53:41.989Z,4.53
2018-08-24T01:56:10.737Z,4.20
2018-08-24T01:58:39.299Z,4.80
2018-08-24T02:01:07.996Z,4.00
2018-08-24T02:03:36.555Z,3.77
2018-08-24T02:06:05.584Z,4.90
2018-08-24T02:08:35.666Z,4.10
2018-08-24T02:11:08.427Z,3.98
2018-08-24T02:13:42.368Z,3.77
2018-08-24T02:16:10.936Z,3.95
2018-08-24T02:18:44.699Z,4.00
2018-08-24T02:21:18.418Z,4.50
2018-08-24T02:23:47.242Z,4.90
2018-08-24T02:26:15.858Z,4.97
2018-08-24T02:28:44.419Z,4.00
2018-08-24T02:31:13.032Z,4.50
2018-08-24T02:33:41.660Z,3.75
2018-08-24T02:36:11.149Z,3.87
2018-08-24T02:38:40.355Z,3.22
2018-08-24T02:41:08.980Z,3.62
2018-08-24T02:43:37.605Z,4.00
2018-08-24T02:46:06.427Z,4.00
2018-08-24T02:48:34.981Z,4.45
2018-08-24T02:51:03.535Z,3.70
2018-08-24T02:53:32.278Z,4.25
2018-08-24T02:56:00.849Z,4.47
2018-08-24T02:58:29.463Z,4.42
2018-08-24T03:00:58.115Z,4.00
2018-08-24T03:03:26.667Z,4.58
2018-08-24T03:05:55.268Z,4.15
2018-08-24T03:08:23.985Z,4.00
2018-08-24T03:10:52.482Z,4.25
2018-08-24T03:13:21.039Z,4.62
2018-08-24T03:15:49.755Z,4.08
2018-08-24T03:18:18.396Z,3.40
2018-08-24T03:20:46.959Z,4.55
2018-08-24T03:23:15.634Z,3.75
2018-08-24T03:25:44.189Z,4.35
2018-08-24T03:28:12.738Z,4.90
2018-08-24T03:30:41.311Z,4.12
2018-08-24T03:33:09.935Z,3.83
2018-08-24T03:35:38.547Z,3.95
2018-08-24T03:38:07.140Z,4.45
2018-08-24T03:40:35.716Z,4.60
2018-08-24T03:43:04.329Z,4.35
2018-08-24T03:45:33.133Z,4.28
2018-08-24T03:48:01.721Z,4.15
2018-08-24T03:50:30.605Z,3.50
2018-08-24T03:52:59.186Z,4.20
2018-08-24T03:55:32.727Z,4.83
2018-08-24T03:58:01.708Z,5.37
2018-08-24T04:00:30.291Z,5.03
2018-08-24T04:02:58.868Z,5.12
2018-08-24T04:05:27.535Z,5.22
2018-08-24T04:07:56.459Z,4.90
2018-08-24T04:10:26.332Z,4.45
2018-08-24T04:12:55.865Z,4.42
2018-08-24T04:15:24.525Z,3.85
2018-08-24T04:17:53.132Z,5.33
2018-08-24T04:20:21.727Z,3.87
2018-08-24T04:22:50.290Z,5.12
2018-08-24T04:25:19.403Z,5.10
2018-08-24T04:27:47.959Z,5.08
2018-08-24T04:30:16.675Z,5.37
2018-08-24T04:32:45.229Z,5.78
2018-08-24T04:35:13.784Z,4.80
2018-08-24T04:37:42.480Z,4.72
2018-08-24T04:40:11.078Z,3.90
2018-08-24T04:42:39.651Z,4.60
2018-08-24T04:45:08.333Z,5.17
2018-08-24T04:47:36.897Z,4.95
2018-08-24T04:50:05.863Z,4.40
2018-08-24T04:52:34.634Z,4.97
2018-08-24T04:55:03.250Z,5.17
2018-08-24T04:57:32.111Z,5.62
2018-08-24T05:00:00.774Z,4.55
2018-08-24T05:02:29.321Z,4.85
2018-08-24T05:04:57.910Z,4.78
2018-08-24T05:07:26.463Z,4.35
2018-08-24T05:09:55.106Z,4.85
2018-08-24T05:12:23.660Z,4.97
2018-08-24T05:14:52.238Z,4.12
2018-08-24T05:17:20.794Z,4.87
2018-08-24T05:19:49.378Z,5.17
2018-08-24T05:22:18.015Z,5.05
2018-08-24T05:24:46.818Z,5.30
2018-08-24T05:27:15.383Z,3.77
2018-08-24T05:29:44.111Z,4.35
2018-08-24T05:32:12.690Z,4.03
2018-08-24T05:34:41.407Z,5.30
2018-08-24T05:37:10.070Z,4.00
2018-08-24T05:39:38.628Z,4.58
2018-08-24T05:42:07.314Z,5.20
2018-08-24T05:44:35.997Z,5.12
2018-08-24T05:47:04.625Z,5.05
2018-08-24T05:49:33.179Z,4.80
2018-08-24T05:52:01.747Z,5.10
2018-08-24T05:54:30.339Z,5.10
2018-08-24T05:56:58.910Z,5.28
2018-08-24T05:59:27.493Z,4.85
2018-08-24T06:01:56.251Z,5.03
2018-08-24T06:04:24.802Z,4.80
2018-08-24T06:06:54.495Z,4.60
2018-08-24T06:09:23.254Z,6.00
2018-08-24T06:11:52.102Z,5.42
2018-08-24T06:14:20.706Z,5.35
2018-08-24T06:16:54.567Z,5.55
2018-08-24T06:19:23.139Z,4.95
2018-08-24T06:21:52.011Z,5.45
2018-08-24T06:24:20.935Z,5.45
2018-08-24T06:26:49.566Z,6.17
2018-08-24T06:29:18.627Z,5.70
2018-08-24T06:31:47.205Z,7.28
2018-08-24T06:34:15.763Z,6.92
2018-08-24T06:36:44.389Z,5.50
2018-08-24T06:39:14.264Z,5.45
2018-08-24T06:41:43.834Z,6.33
2018-08-24T06:44:12.650Z,5.92
2018-08-24T06:46:41.471Z,7.12
2018-08-24T06:49:10.059Z,6.10
2018-08-24T06:51:38.614Z,7.20
2018-08-24T06:54:07.298Z,5.17
2018-08-24T06:56:35.842Z,5.53
2018-08-24T06:59:04.870Z,6.42
2018-08-24T07:01:33.412Z,6.55
2018-08-24T07:04:02.347Z,6.95
2018-08-24T07:06:30.901Z,6.35
2018-08-24T07:08:59.474Z,5.78
2018-08-24T07:11:28.540Z,6.45
2018-08-24T07:13:57.272Z,5.70
2018-08-24T07:16:25.869Z,5.15
2018-08-24T07:18:54.422Z,5.47
2018-08-24T07:21:22.978Z,5.75
2018-08-24T07:23:51.601Z,5.15
2018-08-24T07:26:20.167Z,5.37
2018-08-24T07:28:48.766Z,4.80
2018-08-24T07:31:17.481Z,5.00
2018-08-24T07:33:46.137Z,5.58
2018-08-24T07:36:14.681Z,5.65
2018-08-24T07:38:43.281Z,4.60
2018-08-24T07:41:11.983Z,5.00
2018-08-24T07:43:40.608Z,4.37
2018-08-24T07:46:09.204Z,4.33
2018-08-24T07:48:37.754Z,4.53
2018-08-24T07:51:06.460Z,3.92
2018-08-24T07:53:35.059Z,4.40
2018-08-24T07:56:03.730Z,3.58
2018-08-24T07:58:32.308Z,4.60
2018-08-24T08:01:00.881Z,4.45
2018-08-24T08:03:29.442Z,4.62
2018-08-24T08:05:58.003Z,5.00
2018-08-24T08:08:26.632Z,4.80
2018-08-24T08:10:55.565Z,4.92
2018-08-24T08:13:24.119Z,4.62
2018-08-24T08:15:52.735Z,4.47
2018-08-24T08:18:21.382Z,5.10
2018-08-24T08:20:49.904Z,4.60
2018-08-24T08:23:18.519Z,4.30
2018-08-24T08:25:48.047Z,4.33
2018-08-24T08:28:16.875Z,4.50
2018-08-24T08:30:45.459Z,4.03
2018-08-24T08:33:14.023Z,4.90
2018-08-24T08:35:42.622Z,3.77
2018-08-24T08:38:11.179Z,4.40
2018-08-24T08:40:40.216Z,4.10
2018-08-24T08:43:08.764Z,3.60
2018-08-24T08:45:37.351Z,4.40
2018-08-24T08:48:05.914Z,3.67
2018-08-24T08:50:34.496Z,4.73
2018-08-24T08:53:03.069Z,4.10
2018-08-24T08:55:31.628Z,4.30
2018-08-24T08:58:00.800Z,4.07
2018-08-24T09:00:29.383Z,5.07
2018-08-24T09:02:57.963Z,4.00
2018-08-24T09:05:26.542Z,3.23
2018-08-24T09:07:55.114Z,4.00
2018-08-24T09:10:23.756Z,3.07
2018-08-24T09:12:52.330Z,4.50
2018-08-24T09:15:20.894Z,4.60
2018-08-24T09:17:54.766Z,3.63
2018-08-24T09:20:28.707Z,4.07
2018-08-24T09:23:02.574Z,3.40
2018-08-24T09:25:36.391Z,3.80
2018-08-24T09:28:11.246Z,3.20
2018-08-24T09:30:44.722Z,3.97
2018-08-24T09:33:13.507Z,3.50
2018-08-24T09:35:42.063Z,3.27
2018-08-24T09:38:10.672Z,3.70
2018-08-24T09:40:44.436Z,3.80
2018-08-24T09:43:18.337Z,3.50
2018-08-24T09:45:46.931Z,3.40
2018-08-24T09:48:20.882Z,3.30
2018-08-24T09:50:55.451Z,3.40
2018-08-24T09:54:27.612Z,3.50
2018-08-24T09:56:56.252Z,3.80
2018-08-24T09:59:24.755Z,3.50
2018-08-24T10:01:58.407Z,3.30
2018-08-24T10:04:32.315Z,2.87
2018-08-24T10:07:06.151Z,3.13
2018-08-24T10:09:34.717Z,3.13
2018-08-24T10:12:03.607Z,3.43
2018-08-24T10:14:32.187Z,3.53
2018-08-24T10:17:00.743Z,3.63
2018-08-24T10:19:29.339Z,3.27
2018-08-24T10:21:58.113Z,3.50
2018-08-24T10:24:26.734Z,3.90
2018-08-24T10:26:55.332Z,3.03
2018-08-24T10:29:24.207Z,3.00
2018-08-24T10:31:52.854Z,3.37
2018-08-24T10:34:21.450Z,3.23
2018-08-24T10:36:50.039Z,2.60
2018-08-24T10:39:18.711Z,3.70
2018-08-24T10:41:47.262Z,3.13
2018-08-24T10:44:15.851Z,3.07
2018-08-24T10:46:44.406Z,3.70
2018-08-24T10:49:12.994Z,3.37
2018-08-24T10:51:41.606Z,2.90
2018-08-24T10:54:10.160Z,2.70
2018-08-24T10:56:38.760Z,2.90
2018-08-24T10:59:07.339Z,2.90
2018-08-24T11:01:35.960Z,3.00
2018-08-24T11:04:04.880Z,3.10
2018-08-24T11:06:33.447Z,3.03
2018-08-24T11:09:02.193Z,2.97
2018-08-24T11:13:00.175Z,2.83
2018-08-24T11:15:28.735Z,3.37
2018-08-24T11:18:02.546Z,3.60
2018-08-24T11:20:31.118Z,2.80
2018-08-24T11:22:59.988Z,3.43
2018-08-24T11:25:28.539Z,3.60
2018-08-24T11:27:57.116Z,2.90
2018-08-24T11:30:25.668Z,3.37
2018-08-24T11:32:54.379Z,2.93
2018-08-24T11:35:22.963Z,3.43
2018-08-24T11:37:51.639Z,3.50
2018-08-24T11:40:20.840Z,3.27
2018-08-24T11:42:49.465Z,4.50
2018-08-24T11:46:47.605Z,3.90
2018-08-24T11:49:16.159Z,3.60
2018-08-24T11:51:44.712Z,3.70
2018-08-24T11:54:13.546Z,3.87
2018-08-24T11:56:42.026Z,3.10
2018-08-24T11:59:10.630Z,3.40
2018-08-24T12:01:39.232Z,3.97
2018-08-24T12:04:07.794Z,3.40
2018-08-24T12:06:36.785Z,3.60
2018-08-24T12:09:08.236Z,3.70
2018-08-24T12:11:37.029Z,4.00
2018-08-24T12:14:05.683Z,3.57
2018-08-24T12:16:34.298Z,4.40
2018-08-24T12:19:02.879Z,3.53
2018-08-24T12:21:31.744Z,3.73
2018-08-24T12:24:00.346Z,3.80
2018-08-24T12:26:28.903Z,3.30
2018-08-24T12:28:57.451Z,4.40
2018-08-24T12:31:26.012Z,4.50
2018-08-24T12:33:54.587Z,5.07
2018-08-24T12:36:23.183Z,5.20
2018-08-24T12:38:52.083Z,3.90
2018-08-24T12:41:20.436Z,4.70
2018-08-24T12:43:48.967Z,4.47
2018-08-24T12:46:17.730Z,4.30
2018-08-24T12:48:46.357Z,4.97
2018-08-24T12:51:14.924Z,4.33
2018-08-24T12:53:43.516Z,4.60
2018-08-24T12:56:17.443Z,5.27
2018-08-24T12:58:46.040Z,4.37
2018-08-24T13:01:14.605Z,5.23
2018-08-24T13:03:43.415Z,5.15
2018-08-24T13:06:12.179Z,4.30
2018-08-24T13:08:41.317Z,4.37
2018-08-24T13:11:09.879Z,5.83
2018-08-24T13:13:38.456Z,5.92
2018-08-24T13:16:07.199Z,4.50
2018-08-24T13:18:35.828Z,5.50
2018-08-24T13:21:04.755Z,5.30
2018-08-24T13:23:33.355Z,6.20
2018-08-24T13:26:01.936Z,5.20
2018-08-24T13:28:30.531Z,6.13
2018-08-24T13:30:59.144Z,5.90
2018-08-24T13:33:27.931Z,5.23
2018-08-24T13:35:56.587Z,5.80
2018-08-24T13:38:25.215Z,6.08
2018-08-24T13:40:53.815Z,6.47
2018-08-24T13:43:22.382Z,6.33
2018-08-24T13:45:51.319Z,7.12
2018-08-24T13:48:20.020Z,7.58
2018-08-24T13:50:48.595Z,6.72
2018-08-24T13:53:17.256Z,5.85
2018-08-24T13:55:45.815Z,7.28
2018-08-24T13:58:14.753Z,7.37
2018-08-24T14:00:43.355Z,8.20
2018-08-24T14:03:11.948Z,6.22
2018-08-24T14:05:40.506Z,6.92
2018-08-24T14:08:09.083Z,6.70
2018-08-24T14:10:37.980Z,5.75
2018-08-24T14:13:06.593Z,6.60
2018-08-24T14:15:35.178Z,6.50
2018-08-24T14:18:03.790Z,6.08
2018-08-24T14:20:32.579Z,5.45
2018-08-24T14:23:01.178Z,6.15
2018-08-24T14:25:29.787Z,6.65
2018-08-24T14:27:58.571Z,7.92
2018-08-24T14:30:27.131Z,8.00
2018-08-24T14:32:55.693Z,7.27
2018-08-24T14:35:24.323Z,6.70
2018-08-24T14:37:52.891Z,6.80
2018-08-24T14:40:21.439Z,6.50
2018-08-24T14:42:50.021Z,6.50
2018-08-24T14:45:18.923Z,6.20
2018-08-24T14:47:47.518Z,5.90
2018-08-24T14:50:16.545Z,6.10
2018-08-24T14:52:45.143Z,6.00
2018-08-24T14:55:13.707Z,6.27
2018-08-24T14:57:42.272Z,5.53
2018-08-24T15:00:10.889Z,5.90
2018-08-24T15:02:39.466Z,6.83
2018-08-24T15:05:10.139Z,6.77
2018-08-24T15:07:38.694Z,5.90
2018-08-24T15:10:07.469Z,5.30
2018-08-24T15:12:36.192Z,6.40
2018-08-24T15:15:04.871Z,6.90
2018-08-24T15:17:33.598Z,6.95
2018-08-24T15:20:03.314Z,4.67
2018-08-24T15:22:32.371Z,4.40
2018-08-24T15:25:00.938Z,3.62
2018-08-24T15:27:30.040Z,2.62
2018-08-24T15:29:58.880Z,2.87
2018-08-24T15:32:27.455Z,3.45
2018-08-24T15:34:56.028Z,2.98
2018-08-24T15:37:24.796Z,3.80
2018-08-24T15:39:53.552Z,4.22
2018-08-24T15:42:22.136Z,4.92
2018-08-24T15:44:50.695Z,4.03
2018-08-24T15:47:19.287Z,5.00
2018-08-24T15:49:47.874Z,3.45
2018-08-24T15:52:16.460Z,3.60
2018-08-24T15:54:45.140Z,3.60
2018-08-24T15:57:13.600Z,2.75
2018-08-24T15:59:42.285Z,2.90
2018-08-24T16:02:10.900Z,3.12
2018-08-24T16:04:39.499Z,2.50
2018-08-24T16:07:08.087Z,2.45
2018-08-24T16:09:36.915Z,3.47
2018-08-24T16:12:05.871Z,2.75
2018-08-24T16:14:34.439Z,2.70
2018-08-24T16:17:03.317Z,3.10
2018-08-24T16:19:31.878Z,2.77
2018-08-24T16:22:00.458Z,6.10
2018-08-24T16:24:29.149Z,4.50
2018-08-24T16:26:57.739Z,3.90
2018-08-24T16:29:26.345Z,4.30
2018-08-24T16:31:55.097Z,4.25
2018-08-24T16:34:23.667Z,3.65
2018-08-24T16:36:52.284Z,4.50
2018-08-24T16:39:20.878Z,5.80
2018-08-24T16:41:49.476Z,3.75
2018-08-24T16:44:18.051Z,3.17
2018-08-24T16:46:46.820Z,3.17
2018-08-24T16:49:15.331Z,3.20
2018-08-24T16:51:43.899Z,2.55
2018-08-24T16:54:12.494Z,2.52
2018-08-24T16:56:41.172Z,3.42
2018-08-24T16:59:09.757Z,3.15
2018-08-24T17:01:38.311Z,3.60
2018-08-24T17:04:07.227Z,2.90
2018-08-24T17:06:35.786Z,3.30
2018-08-24T17:09:06.514Z,3.80
2018-08-24T17:11:35.115Z,3.60
2018-08-24T17:14:03.715Z,3.33
2018-08-24T17:16:32.277Z,3.90
2018-08-24T17:19:00.926Z,2.98
2018-08-24T17:21:29.878Z,3.20
2018-08-24T17:23:58.632Z,3.20
2018-08-24T17:26:27.331Z,3.83
2018-08-24T17:28:56.088Z,3.72
2018-08-24T17:31:24.705Z,2.65
2018-08-24T17:33:53.300Z,4.30
2018-08-24T17:36:21.907Z,3.52
2018-08-24T17:38:50.514Z,3.40
2018-08-24T17:41:19.252Z,3.72
2018-08-24T17:43:47.822Z,4.37
2018-08-24T17:46:16.414Z,4.25
2018-08-24T17:48:44.984Z,4.35
2018-08-24T17:51:13.602Z,5.10
2018-08-24T17:53:42.183Z,4.30
2018-08-24T17:56:10.904Z,5.17
2018-08-24T17:58:39.496Z,5.55
2018-08-24T18:01:08.059Z,4.78
2018-08-24T18:03:36.731Z,5.85
2018-08-24T18:06:05.937Z,5.72
2018-08-24T18:08:34.540Z,5.87
2018-08-24T18:11:03.247Z,6.42
2018-08-24T18:13:32.079Z,5.65
2018-08-24T18:16:00.737Z,5.42
2018-08-24T18:18:29.293Z,5.47
2018-08-24T18:20:58.007Z,6.10
2018-08-24T18:23:26.886Z,5.47
2018-08-24T18:25:55.511Z,5.30
2018-08-24T18:28:24.062Z,6.65
2018-08-24T18:30:52.623Z,5.08
2018-08-24T18:33:21.262Z,5.15
2018-08-24T18:35:49.887Z,4.45
2018-08-24T18:38:18.507Z,4.90
2018-08-24T18:40:47.275Z,4.78
2018-08-24T18:43:15.830Z,3.58
2018-08-24T18:45:44.453Z,4.33
2018-08-24T18:48:13.007Z,4.55
2018-08-24T18:50:41.633Z,4.45
2018-08-24T18:53:10.719Z,4.92
2018-08-24T18:55:39.611Z,4.78
2018-08-24T18:58:08.347Z,4.30
2018-08-24T19:00:36.927Z,4.42
2018-08-24T19:03:05.551Z,4.80
2018-08-24T19:05:34.301Z,3.80
2018-08-24T19:08:08.063Z,4.20
2018-08-24T19:10:42.322Z,4.25
2018-08-24T19:13:11.368Z,3.52
2018-08-24T19:15:40.091Z,4.15
2018-08-24T19:18:13.953Z,4.65
2018-08-24T19:20:47.690Z,5.10
2018-08-24T19:23:16.265Z,5.17
2018-08-24T19:25:44.939Z,5.28
2018-08-24T19:28:18.838Z,4.62
2018-08-24T19:30:47.435Z,5.53
2018-08-24T19:33:16.014Z,4.92
2018-08-24T19:35:44.575Z,5.10
2018-08-24T19:38:13.156Z,4.83
2018-08-24T19:40:47.054Z,4.83
2018-08-24T19:43:15.617Z,5.08
2018-08-24T19:45:44.176Z,5.33
2018-08-24T19:48:18.218Z,4.70
2018-08-24T19:50:46.734Z,6.03
2018-08-24T19:53:15.388Z,5.70
2018-08-24T19:55:44.055Z,5.85
2018-08-24T19:58:17.845Z,6.17
2018-08-24T20:00:46.436Z,7.47
2018-08-24T20:03:15.258Z,6.17
2018-08-24T20:05:48.111Z,5.80
2018-08-24T20:08:21.840Z,5.50
2018-08-24T20:10:50.415Z,5.80
2018-08-24T20:13:18.979Z,5.92
2018-08-24T20:15:52.789Z,6.33
2018-08-24T20:18:21.346Z,5.83
2018-08-24T20:20:50.234Z,6.33
2018-08-24T20:23:19.127Z,6.20
2018-08-24T20:25:47.694Z,6.40
2018-08-24T20:28:16.530Z,5.72
2018-08-24T20:30:45.116Z,5.70
2018-08-24T20:33:13.775Z,5.95
2018-08-24T20:35:42.600Z,6.28
2018-08-24T20:38:11.199Z,6.08
2018-08-24T20:40:39.889Z,6.53
2018-08-24T20:43:08.443Z,5.50
2018-08-24T20:45:36.995Z,6.50
2018-08-24T20:48:06.119Z,5.05
2018-08-24T20:50:34.735Z,6.22
2018-08-24T20:53:03.774Z,5.55
2018-08-24T20:55:32.454Z,5.65
2018-08-24T20:58:00.995Z,4.22
2018-08-24T21:00:29.955Z,5.72
2018-08-24T21:02:58.627Z,4.83
2018-08-24T21:05:27.407Z,5.80
2018-08-24T21:07:56.084Z,5.83
2018-08-24T21:10:24.670Z,5.08
2018-08-24T21:12:53.595Z,5.10
2018-08-24T21:15:22.150Z,6.30
2018-08-24T21:17:50.702Z,5.17
2018-08-24T21:20:19.293Z,5.50
2018-08-24T21:22:48.175Z,4.47
2018-08-24T21:25:16.731Z,5.60
2018-08-24T21:27:45.279Z,5.97
2018-08-24T21:30:14.258Z,5.10
2018-08-24T21:32:42.781Z,5.10
2018-08-24T21:35:11.327Z,5.08
2018-08-24T21:37:39.882Z,5.85
2018-08-24T21:40:08.499Z,4.95
2018-08-24T21:42:37.058Z,4.67
2018-08-24T21:45:06.099Z,3.95
2018-08-24T21:47:34.947Z,4.60
2018-08-24T21:50:04.026Z,4.47
2018-08-24T21:52:32.632Z,3.83
2018-08-24T21:55:01.192Z,3.85
2018-08-24T21:57:29.748Z,3.85
2018-08-24T21:59:58.300Z,4.15
2018-08-24T22:02:26.870Z,3.58
2018-08-24T22:04:56.000Z,3.60
2018-08-24T22:07:24.571Z,3.47
2018-08-24T22:09:53.137Z,3.35
2018-08-24T22:12:21.683Z,3.40
2018-08-24T22:14:50.325Z,4.15
2018-08-24T22:17:18.935Z,3.30
2018-08-24T22:19:47.490Z,3.40
2018-08-24T22:22:16.057Z,3.42
2018-08-24T22:24:44.607Z,3.75
2018-08-24T22:27:13.221Z,3.35
2018-08-24T22:29:41.802Z,3.08
2018-08-24T22:32:10.677Z,3.42
2018-08-24T22:34:39.219Z,3.37
2018-08-24T22:37:07.795Z,3.45
2018-08-24T22:39:36.360Z,2.92
2018-08-24T22:42:05.247Z,3.30
2018-08-24T22:44:33.830Z,5.28
2018-08-24T22:47:02.440Z,3.00
2018-08-24T22:49:31.319Z,2.72
2018-08-24T22:51:59.883Z,2.80
2018-08-24T22:54:28.771Z,3.47
2018-08-24T22:56:57.388Z,2.45
2018-08-24T22:59:26.043Z,2.70
2018-08-24T23:01:54.649Z,3.42
2018-08-24T23:04:23.205Z,2.52
2018-08-24T23:06:51.761Z,3.12
2018-08-24T23:09:20.318Z,2.70
2018-08-24T23:11:48.999Z,2.50
2018-08-24T23:14:17.771Z,3.20
2018-08-24T23:16:46.331Z,2.65
2018-08-24T23:19:14.885Z,2.70
2018-08-24T23:21:43.442Z,2.67
2018-08-24T23:24:12.013Z,2.58
2018-08-24T23:26:40.574Z,2.83
2018-08-24T23:29:09.139Z,2.55
2018-08-24T23:31:37.712Z,2.77
2018-08-24T23:34:06.321Z,2.83
2018-08-24T23:36:34.975Z,2.30
2018-08-24T23:39:04.743Z,1.80
2018-08-24T23:41:33.307Z,2.55
2018-08-24T23:44:02.280Z,2.27
2018-08-24T23:46:30.855Z,2.52
2018-08-24T23:48:59.409Z,2.45
2018-08-24T23:51:27.963Z,2.47
2018-08-24T23:53:56.635Z,2.27
2018-08-24T23:56:25.227Z,3.33
2018-08-24T23:58:54.008Z,2.60
